sensor_id;sensor_type;location;lat;lon;timestamp;temperature;humidity
63317;DHT22;49822;41.468;13.560;2024-03-22T00:01:50;13.10;83.60
63317;DHT22;49822;41.468;13.560;2024-03-22T00:04:17;13.00;83.90
63317;DHT22;49822;41.468;13.560;2024-03-22T00:06:45;12.90;83.90
63317;DHT22;49822;41.468;13.560;2024-03-22T00:09:12;13.00;83.90
63317;DHT22;49822;41.468;13.560;2024-03-22T00:11:40;13.10;84.00
63317;DHT22;49822;41.468;13.560;2024-03-22T00:14:07;13.20;83.90
63317;DHT22;49822;41.468;13.560;2024-03-22T00:16:33;13.40;83.60
63317;DHT22;49822;41.468;13.560;2024-03-22T00:18:59;13.40;83.60
63317;DHT22;49822;41.468;13.560;2024-03-22T00:21:26;13.40;83.80
63317;DHT22;49822;41.468;13.560;2024-03-22T00:23:52;13.40;83.30
63317;DHT22;49822;41.468;13.560;2024-03-22T00:26:18;13.30;83.00
63317;DHT22;49822;41.468;13.560;2024-03-22T00:28:44;13.30;83.30
63317;DHT22;49822;41.468;13.560;2024-03-22T00:31:10;13.20;83.60
63317;DHT22;49822;41.468;13.560;2024-03-22T00:33:36;13.20;83.60
63317;DHT22;49822;41.468;13.560;2024-03-22T00:36:03;12.60;84.80
63317;DHT22;49822;41.468;13.560;2024-03-22T00:38:29;12.30;85.10
63317;DHT22;49822;41.468;13.560;2024-03-22T00:40:55;12.40;85.30
63317;DHT22;49822;41.468;13.560;2024-03-22T00:43:21;12.60;85.30
63317;DHT22;49822;41.468;13.560;2024-03-22T00:45:48;12.80;84.80
63317;DHT22;49822;41.468;13.560;2024-03-22T00:48:15;13.00;84.60
63317;DHT22;49822;41.468;13.560;2024-03-22T00:50:41;13.10;84.60
63317;DHT22;49822;41.468;13.560;2024-03-22T00:53:07;13.00;84.40
63317;DHT22;49822;41.468;13.560;2024-03-22T00:55:34;12.90;84.50
63317;DHT22;49822;41.468;13.560;2024-03-22T00:58:00;13.00;84.30
63317;DHT22;49822;41.468;13.560;2024-03-22T01:00:26;13.00;84.30
63317;DHT22;49822;41.468;13.560;2024-03-22T01:02:52;13.10;84.00
63317;DHT22;49822;41.468;13.560;2024-03-22T01:05:18;13.20;83.70
63317;DHT22;49822;41.468;13.560;2024-03-22T01:07:44;13.20;83.50
63317;DHT22;49822;41.468;13.560;2024-03-22T01:10:11;13.30;83.50
63317;DHT22;49822;41.468;13.560;2024-03-22T01:12:38;13.30;83.60
63317;DHT22;49822;41.468;13.560;2024-03-22T01:15:05;13.20;83.80
63317;DHT22;49822;41.468;13.560;2024-03-22T01:17:31;13.20;83.80
63317;DHT22;49822;41.468;13.560;2024-03-22T01:19:57;13.20;83.50
63317;DHT22;49822;41.468;13.560;2024-03-22T01:22:23;13.20;83.40
63317;DHT22;49822;41.468;13.560;2024-03-22T01:24:49;13.20;83.20
63317;DHT22;49822;41.468;13.560;2024-03-22T01:27:15;13.20;82.30
63317;DHT22;49822;41.468;13.560;2024-03-22T01:29:41;13.30;83.00
63317;DHT22;49822;41.468;13.560;2024-03-22T01:32:07;13.40;82.80
63317;DHT22;49822;41.468;13.560;2024-03-22T01:34:34;13.40;83.40
63317;DHT22;49822;41.468;13.560;2024-03-22T01:37:00;13.20;84.00
63317;DHT22;49822;41.468;13.560;2024-03-22T01:39:26;13.30;83.70
63317;DHT22;49822;41.468;13.560;2024-03-22T01:41:52;13.30;83.60
63317;DHT22;49822;41.468;13.560;2024-03-22T01:44:19;13.30;83.60
63317;DHT22;49822;41.468;13.560;2024-03-22T01:46:46;13.30;83.20
63317;DHT22;49822;41.468;13.560;2024-03-22T01:49:16;13.40;83.50
63317;DHT22;49822;41.468;13.560;2024-03-22T01:51:42;13.30;83.50
63317;DHT22;49822;41.468;13.560;2024-03-22T01:54:09;13.40;83.60
63317;DHT22;49822;41.468;13.560;2024-03-22T01:56:37;13.40;83.50
63317;DHT22;49822;41.468;13.560;2024-03-22T01:59:07;13.40;83.30
63317;DHT22;49822;41.468;13.560;2024-03-22T02:01:34;13.40;83.10
63317;DHT22;49822;41.468;13.560;2024-03-22T02:04:01;13.50;82.90
63317;DHT22;49822;41.468;13.560;2024-03-22T02:06:27;13.40;82.90
63317;DHT22;49822;41.468;13.560;2024-03-22T02:08:53;13.50;83.40
63317;DHT22;49822;41.468;13.560;2024-03-22T02:11:20;13.40;84.00
63317;DHT22;49822;41.468;13.560;2024-03-22T02:13:47;13.30;84.20
63317;DHT22;49822;41.468;13.560;2024-03-22T02:16:13;13.20;84.20
63317;DHT22;49822;41.468;13.560;2024-03-22T02:21:42;13.10;83.80
63317;DHT22;49822;41.468;13.560;2024-03-22T02:24:08;12.60;85.40
63317;DHT22;49822;41.468;13.560;2024-03-22T02:26:34;12.60;86.00
63317;DHT22;49822;41.468;13.560;2024-03-22T02:29:00;12.40;85.80
63317;DHT22;49822;41.468;13.560;2024-03-22T02:31:26;12.60;86.10
63317;DHT22;49822;41.468;13.560;2024-03-22T02:33:52;12.60;85.50
63317;DHT22;49822;41.468;13.560;2024-03-22T02:36:18;12.60;85.50
63317;DHT22;49822;41.468;13.560;2024-03-22T02:38:44;12.60;85.20
63317;DHT22;49822;41.468;13.560;2024-03-22T02:41:10;12.70;84.90
63317;DHT22;49822;41.468;13.560;2024-03-22T02:43:36;12.70;85.00
63317;DHT22;49822;41.468;13.560;2024-03-22T02:46:02;12.70;84.40
63317;DHT22;49822;41.468;13.560;2024-03-22T02:48:28;12.70;84.70
63317;DHT22;49822;41.468;13.560;2024-03-22T02:50:56;12.60;85.40
63317;DHT22;49822;41.468;13.560;2024-03-22T02:53:22;12.80;84.80
63317;DHT22;49822;41.468;13.560;2024-03-22T02:55:48;12.80;84.70
63317;DHT22;49822;41.468;13.560;2024-03-22T02:58:14;12.90;84.80
63317;DHT22;49822;41.468;13.560;2024-03-22T03:00:42;13.10;84.60
63317;DHT22;49822;41.468;13.560;2024-03-22T03:03:10;13.20;84.30
63317;DHT22;49822;41.468;13.560;2024-03-22T03:05:36;13.10;84.00
63317;DHT22;49822;41.468;13.560;2024-03-22T03:08:03;13.20;84.00
63317;DHT22;49822;41.468;13.560;2024-03-22T03:10:29;13.20;84.40
63317;DHT22;49822;41.468;13.560;2024-03-22T03:12:55;13.20;84.40
63317;DHT22;49822;41.468;13.560;2024-03-22T03:15:21;13.10;84.30
63317;DHT22;49822;41.468;13.560;2024-03-22T03:17:47;13.20;84.20
63317;DHT22;49822;41.468;13.560;2024-03-22T03:20:14;13.20;84.10
63317;DHT22;49822;41.468;13.560;2024-03-22T03:22:40;13.10;84.30
63317;DHT22;49822;41.468;13.560;2024-03-22T03:27:52;13.00;84.20
63317;DHT22;49822;41.468;13.560;2024-03-22T03:30:18;13.00;84.10
63317;DHT22;49822;41.468;13.560;2024-03-22T03:32:44;12.80;83.50
63317;DHT22;49822;41.468;13.560;2024-03-22T03:35:10;12.70;83.00
63317;DHT22;49822;41.468;13.560;2024-03-22T03:37:36;12.90;83.30
63317;DHT22;49822;41.468;13.560;2024-03-22T03:40:02;13.00;84.30
63317;DHT22;49822;41.468;13.560;2024-03-22T03:42:30;13.00;84.60
63317;DHT22;49822;41.468;13.560;2024-03-22T03:44:56;13.10;84.50
63317;DHT22;49822;41.468;13.560;2024-03-22T03:47:22;13.10;84.50
63317;DHT22;49822;41.468;13.560;2024-03-22T03:49:48;13.10;84.10
63317;DHT22;49822;41.468;13.560;2024-03-22T03:52:14;13.10;84.20
63317;DHT22;49822;41.468;13.560;2024-03-22T03:54:40;13.20;84.20
63317;DHT22;49822;41.468;13.560;2024-03-22T03:57:06;13.20;84.50
63317;DHT22;49822;41.468;13.560;2024-03-22T03:59:33;13.20;84.50
63317;DHT22;49822;41.468;13.560;2024-03-22T04:01:59;13.20;84.40
63317;DHT22;49822;41.468;13.560;2024-03-22T04:04:25;13.20;84.40
63317;DHT22;49822;41.468;13.560;2024-03-22T04:06:52;13.20;84.50
63317;DHT22;49822;41.468;13.560;2024-03-22T04:09:18;13.40;84.60
63317;DHT22;49822;41.468;13.560;2024-03-22T04:11:43;13.30;84.80
63317;DHT22;49822;41.468;13.560;2024-03-22T04:14:11;13.30;85.00
63317;DHT22;49822;41.468;13.560;2024-03-22T04:16:37;13.30;85.10
63317;DHT22;49822;41.468;13.560;2024-03-22T04:19:03;13.20;85.20
63317;DHT22;49822;41.468;13.560;2024-03-22T04:21:29;13.20;85.30
63317;DHT22;49822;41.468;13.560;2024-03-22T04:23:55;12.90;85.60
63317;DHT22;49822;41.468;13.560;2024-03-22T04:26:21;12.20;87.20
63317;DHT22;49822;41.468;13.560;2024-03-22T04:28:49;11.90;88.60
63317;DHT22;49822;41.468;13.560;2024-03-22T04:31:15;11.60;88.80
63317;DHT22;49822;41.468;13.560;2024-03-22T04:33:41;11.50;88.80
63317;DHT22;49822;41.468;13.560;2024-03-22T04:36:07;11.50;88.60
63317;DHT22;49822;41.468;13.560;2024-03-22T04:38:35;11.50;88.70
63317;DHT22;49822;41.468;13.560;2024-03-22T04:41:01;11.60;88.50
63317;DHT22;49822;41.468;13.560;2024-03-22T04:43:28;11.80;87.80
63317;DHT22;49822;41.468;13.560;2024-03-22T04:45:55;11.90;87.50
63317;DHT22;49822;41.468;13.560;2024-03-22T04:48:22;11.90;87.30
63317;DHT22;49822;41.468;13.560;2024-03-22T04:50:50;12.10;87.40
63317;DHT22;49822;41.468;13.560;2024-03-22T04:53:17;12.10;87.00
63317;DHT22;49822;41.468;13.560;2024-03-22T04:55:44;12.10;87.60
63317;DHT22;49822;41.468;13.560;2024-03-22T04:58:13;12.10;87.30
63317;DHT22;49822;41.468;13.560;2024-03-22T05:00:41;12.10;86.90
63317;DHT22;49822;41.468;13.560;2024-03-22T05:03:12;12.30;86.50
63317;DHT22;49822;41.468;13.560;2024-03-22T05:05:39;12.40;86.10
63317;DHT22;49822;41.468;13.560;2024-03-22T05:08:06;12.60;85.80
63317;DHT22;49822;41.468;13.560;2024-03-22T05:10:33;12.80;85.30
63317;DHT22;49822;41.468;13.560;2024-03-22T05:12:59;12.90;85.40
63317;DHT22;49822;41.468;13.560;2024-03-22T05:15:26;13.00;85.20
63317;DHT22;49822;41.468;13.560;2024-03-22T05:17:53;13.10;85.00
63317;DHT22;49822;41.468;13.560;2024-03-22T05:20:20;13.20;84.80
63317;DHT22;49822;41.468;13.560;2024-03-22T05:22:47;13.30;85.00
63317;DHT22;49822;41.468;13.560;2024-03-22T05:25:13;13.30;85.10
63317;DHT22;49822;41.468;13.560;2024-03-22T05:27:41;13.20;85.50
63317;DHT22;49822;41.468;13.560;2024-03-22T05:30:12;13.10;85.70
63317;DHT22;49822;41.468;13.560;2024-03-22T05:32:41;13.00;85.60
63317;DHT22;49822;41.468;13.560;2024-03-22T05:35:07;13.00;85.70
63317;DHT22;49822;41.468;13.560;2024-03-22T05:37:35;13.00;85.60
63317;DHT22;49822;41.468;13.560;2024-03-22T05:40:03;13.00;85.70
63317;DHT22;49822;41.468;13.560;2024-03-22T05:42:31;12.80;85.50
63317;DHT22;49822;41.468;13.560;2024-03-22T05:44:57;12.90;85.50
63317;DHT22;49822;41.468;13.560;2024-03-22T05:47:24;13.00;85.40
63317;DHT22;49822;41.468;13.560;2024-03-22T05:49:50;13.00;85.60
63317;DHT22;49822;41.468;13.560;2024-03-22T05:52:17;12.90;85.80
63317;DHT22;49822;41.468;13.560;2024-03-22T05:54:44;12.90;85.80
63317;DHT22;49822;41.468;13.560;2024-03-22T05:57:11;13.00;85.70
63317;DHT22;49822;41.468;13.560;2024-03-22T05:59:37;13.10;85.40
63317;DHT22;49822;41.468;13.560;2024-03-22T06:02:05;13.30;85.70
63317;DHT22;49822;41.468;13.560;2024-03-22T06:04:30;13.30;85.90
63317;DHT22;49822;41.468;13.560;2024-03-22T06:06:57;13.30;85.90
63317;DHT22;49822;41.468;13.560;2024-03-22T06:09:28;13.40;85.90
63317;DHT22;49822;41.468;13.560;2024-03-22T06:12:06;13.40;85.80
63317;DHT22;49822;41.468;13.560;2024-03-22T06:14:32;13.30;86.30
63317;DHT22;49822;41.468;13.560;2024-03-22T06:16:59;13.40;86.30
63317;DHT22;49822;41.468;13.560;2024-03-22T06:19:25;13.30;86.20
63317;DHT22;49822;41.468;13.560;2024-03-22T06:21:51;13.40;86.80
63317;DHT22;49822;41.468;13.560;2024-03-22T06:24:17;13.40;86.70
63317;DHT22;49822;41.468;13.560;2024-03-22T06:26:43;13.40;86.90
63317;DHT22;49822;41.468;13.560;2024-03-22T06:29:10;13.50;86.70
63317;DHT22;49822;41.468;13.560;2024-03-22T06:31:36;13.40;86.60
63317;DHT22;49822;41.468;13.560;2024-03-22T06:34:02;13.20;86.70
63317;DHT22;49822;41.468;13.560;2024-03-22T06:36:36;13.20;87.30
63317;DHT22;49822;41.468;13.560;2024-03-22T06:39:02;13.20;87.40
63317;DHT22;49822;41.468;13.560;2024-03-22T06:41:32;13.30;87.30
63317;DHT22;49822;41.468;13.560;2024-03-22T06:44:09;13.40;87.10
63317;DHT22;49822;41.468;13.560;2024-03-22T06:46:39;13.40;87.00
63317;DHT22;49822;41.468;13.560;2024-03-22T06:49:05;13.60;86.80
63317;DHT22;49822;41.468;13.560;2024-03-22T06:51:31;13.60;86.70
63317;DHT22;49822;41.468;13.560;2024-03-22T06:53:57;13.60;86.70
63317;DHT22;49822;41.468;13.560;2024-03-22T06:56:23;13.70;86.50
63317;DHT22;49822;41.468;13.560;2024-03-22T06:58:55;13.70;86.70
63317;DHT22;49822;41.468;13.560;2024-03-22T07:01:21;13.60;87.10
63317;DHT22;49822;41.468;13.560;2024-03-22T07:03:47;13.60;87.30
63317;DHT22;49822;41.468;13.560;2024-03-22T07:06:15;13.60;87.30
63317;DHT22;49822;41.468;13.560;2024-03-22T07:08:42;13.80;87.00
63317;DHT22;49822;41.468;13.560;2024-03-22T07:11:08;13.80;87.00
63317;DHT22;49822;41.468;13.560;2024-03-22T07:13:34;13.80;86.90
63317;DHT22;49822;41.468;13.560;2024-03-22T07:16:01;13.90;86.60
63317;DHT22;49822;41.468;13.560;2024-03-22T07:18:27;13.90;86.60
63317;DHT22;49822;41.468;13.560;2024-03-22T07:20:53;14.10;86.90
63317;DHT22;49822;41.468;13.560;2024-03-22T07:23:19;14.10;86.80
63317;DHT22;49822;41.468;13.560;2024-03-22T07:25:45;14.10;86.80
63317;DHT22;49822;41.468;13.560;2024-03-22T07:28:14;14.20;86.90
63317;DHT22;49822;41.468;13.560;2024-03-22T07:30:43;14.20;87.10
63317;DHT22;49822;41.468;13.560;2024-03-22T07:33:11;14.20;86.90
63317;DHT22;49822;41.468;13.560;2024-03-22T07:35:42;14.20;87.00
63317;DHT22;49822;41.468;13.560;2024-03-22T07:38:08;14.20;86.80
63317;DHT22;49822;41.468;13.560;2024-03-22T07:40:35;14.20;86.80
63317;DHT22;49822;41.468;13.560;2024-03-22T07:43:01;14.20;87.10
63317;DHT22;49822;41.468;13.560;2024-03-22T07:45:33;14.20;86.80
63317;DHT22;49822;41.468;13.560;2024-03-22T07:48:00;14.20;86.60
63317;DHT22;49822;41.468;13.560;2024-03-22T07:50:26;14.30;86.20
63317;DHT22;49822;41.468;13.560;2024-03-22T07:52:52;14.20;86.10
63317;DHT22;49822;41.468;13.560;2024-03-22T07:55:18;14.30;85.70
63317;DHT22;49822;41.468;13.560;2024-03-22T07:57:44;14.40;86.20
63317;DHT22;49822;41.468;13.560;2024-03-22T08:00:11;14.50;85.90
63317;DHT22;49822;41.468;13.560;2024-03-22T08:02:41;14.50;85.30
63317;DHT22;49822;41.468;13.560;2024-03-22T08:05:08;14.60;85.30
63317;DHT22;49822;41.468;13.560;2024-03-22T08:07:35;14.70;85.10
63317;DHT22;49822;41.468;13.560;2024-03-22T08:10:01;14.90;84.90
63317;DHT22;49822;41.468;13.560;2024-03-22T08:12:28;15.00;84.60
63317;DHT22;49822;41.468;13.560;2024-03-22T08:18:41;15.40;83.40
63317;DHT22;49822;41.468;13.560;2024-03-22T08:24:56;15.50;82.20
63317;DHT22;49822;41.468;13.560;2024-03-22T08:28:24;15.70;82.40
63317;DHT22;49822;41.468;13.560;2024-03-22T08:30:54;15.80;82.30
63317;DHT22;49822;41.468;13.560;2024-03-22T08:33:20;16.00;82.50
63317;DHT22;49822;41.468;13.560;2024-03-22T08:39:34;16.50;81.10
63317;DHT22;49822;41.468;13.560;2024-03-22T08:42:00;16.80;80.60
63317;DHT22;49822;41.468;13.560;2024-03-22T08:44:27;17.00;79.80
63317;DHT22;49822;41.468;13.560;2024-03-22T08:46:53;17.20;79.20
63317;DHT22;49822;41.468;13.560;2024-03-22T08:49:20;17.30;78.50
63317;DHT22;49822;41.468;13.560;2024-03-22T08:51:46;17.40;77.30
63317;DHT22;49822;41.468;13.560;2024-03-22T08:54:14;17.50;77.60
63317;DHT22;49822;41.468;13.560;2024-03-22T08:56:40;17.50;77.00
63317;DHT22;49822;41.468;13.560;2024-03-22T08:59:06;17.50;77.80
63317;DHT22;49822;41.468;13.560;2024-03-22T09:01:38;17.50;78.40
63317;DHT22;49822;41.468;13.560;2024-03-22T09:04:05;17.60;79.10
63317;DHT22;49822;41.468;13.560;2024-03-22T09:06:31;17.60;79.60
63317;DHT22;49822;41.468;13.560;2024-03-22T09:08:59;17.70;79.10
63317;DHT22;49822;41.468;13.560;2024-03-22T09:11:25;17.60;78.50
63317;DHT22;49822;41.468;13.560;2024-03-22T09:13:53;17.60;78.00
63317;DHT22;49822;41.468;13.560;2024-03-22T09:16:21;17.70;78.10
63317;DHT22;49822;41.468;13.560;2024-03-22T09:18:50;17.80;78.20
63317;DHT22;49822;41.468;13.560;2024-03-22T09:21:16;17.90;77.30
63317;DHT22;49822;41.468;13.560;2024-03-22T09:23:42;18.00;77.90
63317;DHT22;49822;41.468;13.560;2024-03-22T09:26:10;18.00;77.60
63317;DHT22;49822;41.468;13.560;2024-03-22T09:28:36;18.10;77.60
63317;DHT22;49822;41.468;13.560;2024-03-22T09:31:09;18.20;76.40
63317;DHT22;49822;41.468;13.560;2024-03-22T09:33:35;18.20;76.20
63317;DHT22;49822;41.468;13.560;2024-03-22T09:36:02;18.30;76.00
63317;DHT22;49822;41.468;13.560;2024-03-22T09:38:29;18.30;76.00
63317;DHT22;49822;41.468;13.560;2024-03-22T09:40:59;18.40;76.40
63317;DHT22;49822;41.468;13.560;2024-03-22T09:43:28;18.40;75.70
63317;DHT22;49822;41.468;13.560;2024-03-22T09:46:02;18.30;75.00
63317;DHT22;49822;41.468;13.560;2024-03-22T09:48:35;18.50;75.80
63317;DHT22;49822;41.468;13.560;2024-03-22T09:51:02;18.80;74.80
63317;DHT22;49822;41.468;13.560;2024-03-22T09:53:30;18.60;73.00
63317;DHT22;49822;41.468;13.560;2024-03-22T09:55:59;18.60;74.60
63317;DHT22;49822;41.468;13.560;2024-03-22T09:58:28;18.40;75.90
63317;DHT22;49822;41.468;13.560;2024-03-22T10:01:02;18.10;76.30
63317;DHT22;49822;41.468;13.560;2024-03-22T10:03:34;18.30;76.80
63317;DHT22;49822;41.468;13.560;2024-03-22T10:06:06;18.30;75.80
63317;DHT22;49822;41.468;13.560;2024-03-22T10:08:33;18.40;76.00
63317;DHT22;49822;41.468;13.560;2024-03-22T10:11:02;18.50;75.90
63317;DHT22;49822;41.468;13.560;2024-03-22T10:13:30;18.80;75.50
63317;DHT22;49822;41.468;13.560;2024-03-22T10:16:02;18.90;75.80
63317;DHT22;49822;41.468;13.560;2024-03-22T10:18:35;19.10;75.50
63317;DHT22;49822;41.468;13.560;2024-03-22T10:21:03;19.30;76.00
63317;DHT22;49822;41.468;13.560;2024-03-22T10:23:31;19.40;75.20
63317;DHT22;49822;41.468;13.560;2024-03-22T10:25:59;19.60;75.10
63317;DHT22;49822;41.468;13.560;2024-03-22T10:28:26;19.70;75.10
63317;DHT22;49822;41.468;13.560;2024-03-22T10:30:59;19.90;74.20
63317;DHT22;49822;41.468;13.560;2024-03-22T10:33:34;20.10;73.20
63317;DHT22;49822;41.468;13.560;2024-03-22T10:36:00;20.30;72.30
63317;DHT22;49822;41.468;13.560;2024-03-22T10:38:30;20.20;72.80
63317;DHT22;49822;41.468;13.560;2024-03-22T10:40:56;20.30;72.30
63317;DHT22;49822;41.468;13.560;2024-03-22T10:43:23;20.50;72.20
63317;DHT22;49822;41.468;13.560;2024-03-22T10:46:04;20.60;71.00
63317;DHT22;49822;41.468;13.560;2024-03-22T10:48:41;20.60;71.90
63317;DHT22;49822;41.468;13.560;2024-03-22T10:51:10;20.70;72.20
63317;DHT22;49822;41.468;13.560;2024-03-22T10:53:37;20.90;70.50
63317;DHT22;49822;41.468;13.560;2024-03-22T10:56:05;21.00;70.40
63317;DHT22;49822;41.468;13.560;2024-03-22T10:58:33;21.10;71.20
63317;DHT22;49822;41.468;13.560;2024-03-22T11:01:10;21.20;70.60
63317;DHT22;49822;41.468;13.560;2024-03-22T11:04:04;21.30;70.50
63317;DHT22;49822;41.468;13.560;2024-03-22T11:06:33;21.50;70.40
63317;DHT22;49822;41.468;13.560;2024-03-22T11:09:03;21.60;69.70
63317;DHT22;49822;41.468;13.560;2024-03-22T11:11:34;21.70;68.10
63317;DHT22;49822;41.468;13.560;2024-03-22T11:14:03;21.40;68.30
63317;DHT22;49822;41.468;13.560;2024-03-22T11:16:32;21.40;69.00
63317;DHT22;49822;41.468;13.560;2024-03-22T11:19:04;21.50;69.70
63317;DHT22;49822;41.468;13.560;2024-03-22T11:21:34;21.60;68.30
63317;DHT22;49822;41.468;13.560;2024-03-22T11:24:02;21.80;69.50
63317;DHT22;49822;41.468;13.560;2024-03-22T11:26:29;22.10;68.20
63317;DHT22;49822;41.468;13.560;2024-03-22T11:28:56;22.20;68.70
63317;DHT22;49822;41.468;13.560;2024-03-22T11:31:28;22.20;69.00
63317;DHT22;49822;41.468;13.560;2024-03-22T11:33:56;22.20;68.10
63317;DHT22;49822;41.468;13.560;2024-03-22T11:36:23;22.40;67.70
63317;DHT22;49822;41.468;13.560;2024-03-22T11:38:51;22.20;67.60
63317;DHT22;49822;41.468;13.560;2024-03-22T11:41:28;22.20;67.80
63317;DHT22;49822;41.468;13.560;2024-03-22T11:43:57;22.20;66.60
63317;DHT22;49822;41.468;13.560;2024-03-22T11:46:31;22.30;68.80
63317;DHT22;49822;41.468;13.560;2024-03-22T11:49:03;22.70;68.20
63317;DHT22;49822;41.468;13.560;2024-03-22T11:51:31;23.00;67.80
63317;DHT22;49822;41.468;13.560;2024-03-22T11:53:57;23.30;67.10
63317;DHT22;49822;41.468;13.560;2024-03-22T11:56:25;23.30;65.80
63317;DHT22;49822;41.468;13.560;2024-03-22T11:58:58;23.30;67.50
63317;DHT22;49822;41.468;13.560;2024-03-22T12:01:27;23.30;65.30
63317;DHT22;49822;41.468;13.560;2024-03-22T12:03:58;23.40;64.40
63317;DHT22;49822;41.468;13.560;2024-03-22T12:06:24;23.20;64.20
63317;DHT22;49822;41.468;13.560;2024-03-22T12:08:51;23.40;64.80
63317;DHT22;49822;41.468;13.560;2024-03-22T12:11:18;23.60;63.90
63317;DHT22;49822;41.468;13.560;2024-03-22T12:13:44;23.50;63.70
63317;DHT22;49822;41.468;13.560;2024-03-22T12:16:15;23.50;64.70
63317;DHT22;49822;41.468;13.560;2024-03-22T12:18:41;23.70;62.50
63317;DHT22;49822;41.468;13.560;2024-03-22T12:21:07;23.80;62.40
63317;DHT22;49822;41.468;13.560;2024-03-22T12:23:33;24.00;63.40
63317;DHT22;49822;41.468;13.560;2024-03-22T12:26:01;23.90;61.50
63317;DHT22;49822;41.468;13.560;2024-03-22T12:28:27;23.00;62.00
63317;DHT22;49822;41.468;13.560;2024-03-22T12:31:00;23.00;64.50
63317;DHT22;49822;41.468;13.560;2024-03-22T12:33:41;23.40;63.50
63317;DHT22;49822;41.468;13.560;2024-03-22T12:36:07;23.30;62.80
63317;DHT22;49822;41.468;13.560;2024-03-22T12:38:33;23.00;64.10
63317;DHT22;49822;41.468;13.560;2024-03-22T12:41:01;22.80;63.20
63317;DHT22;49822;41.468;13.560;2024-03-22T12:43:27;22.70;63.40
63317;DHT22;49822;41.468;13.560;2024-03-22T12:46:01;22.80;63.80
63317;DHT22;49822;41.468;13.560;2024-03-22T12:48:37;22.80;64.90
63317;DHT22;49822;41.468;13.560;2024-03-22T12:51:03;22.80;63.80
63317;DHT22;49822;41.468;13.560;2024-03-22T12:53:29;22.70;63.90
63317;DHT22;49822;41.468;13.560;2024-03-22T12:55:56;22.50;64.10
63317;DHT22;49822;41.468;13.560;2024-03-22T12:58:23;22.30;64.60
63317;DHT22;49822;41.468;13.560;2024-03-22T13:00:56;22.50;65.50
63317;DHT22;49822;41.468;13.560;2024-03-22T13:03:36;22.80;66.40
63317;DHT22;49822;41.468;13.560;2024-03-22T13:06:07;23.00;65.50
63317;DHT22;49822;41.468;13.560;2024-03-22T13:11:14;23.40;63.20
63317;DHT22;49822;41.468;13.560;2024-03-22T13:13:40;23.50;63.40
63317;DHT22;49822;41.468;13.560;2024-03-22T13:16:07;23.80;61.70
63317;DHT22;49822;41.468;13.560;2024-03-22T13:18:35;23.50;62.80
63317;DHT22;49822;41.468;13.560;2024-03-22T13:21:01;23.50;62.70
63317;DHT22;49822;41.468;13.560;2024-03-22T13:23:28;23.90;62.30
63317;DHT22;49822;41.468;13.560;2024-03-22T13:25:54;24.20;61.50
63317;DHT22;49822;41.468;13.560;2024-03-22T13:28:21;24.30;62.10
63317;DHT22;49822;41.468;13.560;2024-03-22T13:30:48;24.30;60.40
63317;DHT22;49822;41.468;13.560;2024-03-22T13:33:15;24.40;60.30
63317;DHT22;49822;41.468;13.560;2024-03-22T13:35:45;24.40;60.20
63317;DHT22;49822;41.468;13.560;2024-03-22T13:38:11;24.20;60.50
63317;DHT22;49822;41.468;13.560;2024-03-22T13:40:40;24.20;60.50
63317;DHT22;49822;41.468;13.560;2024-03-22T13:43:06;24.20;61.90
63317;DHT22;49822;41.468;13.560;2024-03-22T13:45:32;24.20;62.20
63317;DHT22;49822;41.468;13.560;2024-03-22T13:47:59;24.20;61.40
63317;DHT22;49822;41.468;13.560;2024-03-22T13:50:28;24.10;59.80
63317;DHT22;49822;41.468;13.560;2024-03-22T13:52:54;23.70;59.80
63317;DHT22;49822;41.468;13.560;2024-03-22T13:55:20;23.40;61.70
63317;DHT22;49822;41.468;13.560;2024-03-22T13:57:46;23.40;62.50
63317;DHT22;49822;41.468;13.560;2024-03-22T14:00:12;23.50;63.50
63317;DHT22;49822;41.468;13.560;2024-03-22T14:02:40;23.40;63.90
63317;DHT22;49822;41.468;13.560;2024-03-22T14:05:06;23.40;63.90
63317;DHT22;49822;41.468;13.560;2024-03-22T14:07:34;23.40;64.40
63317;DHT22;49822;41.468;13.560;2024-03-22T14:10:01;23.30;62.50
63317;DHT22;49822;41.468;13.560;2024-03-22T14:12:28;23.30;63.20
63317;DHT22;49822;41.468;13.560;2024-03-22T14:14:55;23.00;64.20
63317;DHT22;49822;41.468;13.560;2024-03-22T14:17:21;23.10;64.10
63317;DHT22;49822;41.468;13.560;2024-03-22T14:19:47;23.30;63.30
63317;DHT22;49822;41.468;13.560;2024-03-22T14:22:13;23.50;63.50
63317;DHT22;49822;41.468;13.560;2024-03-22T14:24:39;23.90;63.10
63317;DHT22;49822;41.468;13.560;2024-03-22T14:27:05;24.00;60.90
63317;DHT22;49822;41.468;13.560;2024-03-22T14:29:31;24.20;61.10
63317;DHT22;49822;41.468;13.560;2024-03-22T14:31:57;24.20;61.50
63317;DHT22;49822;41.468;13.560;2024-03-22T14:34:23;24.30;62.40
63317;DHT22;49822;41.468;13.560;2024-03-22T14:36:49;24.40;62.10
63317;DHT22;49822;41.468;13.560;2024-03-22T14:39:15;24.50;61.80
63317;DHT22;49822;41.468;13.560;2024-03-22T14:41:41;24.80;61.30
63317;DHT22;49822;41.468;13.560;2024-03-22T14:44:07;23.90;63.50
63317;DHT22;49822;41.468;13.560;2024-03-22T14:46:33;23.10;66.10
63317;DHT22;49822;41.468;13.560;2024-03-22T14:49:00;22.60;66.80
63317;DHT22;49822;41.468;13.560;2024-03-22T14:51:26;22.40;66.60
63317;DHT22;49822;41.468;13.560;2024-03-22T14:53:52;22.30;66.90
63317;DHT22;49822;41.468;13.560;2024-03-22T14:56:18;22.30;68.60
63317;DHT22;49822;41.468;13.560;2024-03-22T14:58:45;22.00;69.40
63317;DHT22;49822;41.468;13.560;2024-03-22T15:01:11;21.80;68.60
63317;DHT22;49822;41.468;13.560;2024-03-22T15:03:37;21.40;68.90
63317;DHT22;49822;41.468;13.560;2024-03-22T15:06:03;21.00;69.80
63317;DHT22;49822;41.468;13.560;2024-03-22T15:08:30;20.90;70.20
63317;DHT22;49822;41.468;13.560;2024-03-22T15:10:56;20.60;71.80
63317;DHT22;49822;41.468;13.560;2024-03-22T15:13:23;20.30;72.40
63317;DHT22;49822;41.468;13.560;2024-03-22T15:15:57;20.00;73.20
63317;DHT22;49822;41.468;13.560;2024-03-22T15:18:24;19.80;74.00
63317;DHT22;49822;41.468;13.560;2024-03-22T15:20:50;19.70;74.10
63317;DHT22;49822;41.468;13.560;2024-03-22T15:23:18;19.50;74.10
63317;DHT22;49822;41.468;13.560;2024-03-22T15:25:46;19.50;74.50
63317;DHT22;49822;41.468;13.560;2024-03-22T15:28:13;19.40;74.90
63317;DHT22;49822;41.468;13.560;2024-03-22T15:30:42;19.30;75.10
63317;DHT22;49822;41.468;13.560;2024-03-22T15:33:11;19.30;75.40
63317;DHT22;49822;41.468;13.560;2024-03-22T15:35:38;19.10;75.50
63317;DHT22;49822;41.468;13.560;2024-03-22T15:38:06;19.00;75.50